Time;durP1;ratioP1;P1;durP2;ratioP2;P2;SDS_P1;SDS_P2;PMS_P1;PMS_P2;Temp;Humidity;BMP_temperature;BMP_pressure;BME280_temperature;BME280_humidity;BME280_pressure;Samples;Min_cycle;Max_cycle;Signal;HPM_P1;HPM_P2
2022/11/09 00:01:57;;;;;;;3.70;3.42;;;;;;;12.60;100.00;100509.50;5218650;28;20095;-85
2022/11/09 00:04:28;;;;;;;3.60;3.17;;;;;;;12.57;100.00;100510.88;5234891;28;20074;-84
2022/11/09 00:07:00;;;;;;;3.53;3.33;;;;;;;12.34;100.00;100473.59;5236439;28;20455;-84
2022/11/09 00:09:30;;;;;;;3.33;2.80;;;;;;;12.56;100.00;100508.44;5236068;28;20029;-82
2022/11/09 00:12:03;;;;;;;3.05;2.83;;;;;;;12.52;100.00;100513.59;5218904;28;20039;-83
2022/11/09 00:14:34;;;;;;;4.65;3.45;;;;;;;12.50;100.00;100513.06;5217850;28;20025;-84
2022/11/09 00:17:04;;;;;;;6.75;3.35;;;;;;;12.05;100.00;100443.66;5236429;28;20047;-84
2022/11/09 00:19:35;;;;;;;4.40;4.10;;;;;;;12.09;100.00;100448.25;5235670;28;20426;-85
2022/11/09 00:22:05;;;;;;;7.70;4.13;;;;;;;12.33;100.00;100488.22;5217731;28;20036;-84
2022/11/09 00:24:35;;;;;;;6.53;3.90;;;;;;;12.32;100.00;100492.00;5234702;28;20021;-85
2022/11/09 00:27:06;;;;;;;4.43;3.67;;;;;;;12.42;100.00;100513.63;5235588;28;20029;-84
2022/11/09 00:29:36;;;;;;;4.32;3.85;;;;;;;12.14;100.00;100459.03;5234926;28;20032;-85
2022/11/09 00:32:06;;;;;;;5.28;4.07;;;;;;;12.26;100.00;100487.69;5217755;28;20119;-85
2022/11/09 00:34:37;;;;;;;10.40;3.85;;;;;;;12.10;100.00;100484.25;5235512;28;20402;-85
2022/11/09 00:37:07;;;;;;;7.65;3.10;;;;;;;11.88;100.00;100460.19;5219094;28;20021;-84
2022/11/09 00:39:37;;;;;;;3.72;3.42;;;;;;;12.12;100.00;100501.81;5236355;28;20059;-85
2022/11/09 00:42:08;;;;;;;4.03;3.60;;;;;;;12.05;100.00;100525.66;5237269;28;20021;-85
2022/11/09 00:44:38;;;;;;;4.25;3.38;;;;;;;11.86;100.00;100470.47;5236330;28;20082;-85
2022/11/09 00:47:09;;;;;;;2.10;2.00;;;;;;;11.83;100.00;100485.38;5219842;28;20398;-84
2022/11/09 00:49:39;;;;;;;3.30;3.03;;;;;;;11.55;100.00;100460.78;5236576;28;20024;-85
2022/11/09 00:52:09;;;;;;;9.88;3.80;;;;;;;11.86;100.00;100499.41;5236031;28;20025;-84
2022/11/09 00:54:40;;;;;;;3.75;3.53;;;;;;;11.64;100.00;100464.53;5241550;28;20033;-84
2022/11/09 00:57:12;;;;;;;3.72;3.42;;;;;;;11.83;100.00;100500.81;5241958;28;20059;-85
2022/11/09 00:59:43;;;;;;;12.57;4.43;;;;;;;11.74;100.00;100468.03;5224716;28;20028;-85
2022/11/09 01:02:13;;;;;;;2.78;2.58;;;;;;;12.08;100.00;100494.53;5224450;28;20171;-85
2022/11/09 01:04:43;;;;;;;7.03;3.53;;;;;;;12.28;100.00;100512.59;5239669;28;20460;-85
2022/11/09 01:07:14;;;;;;;7.28;3.70;;;;;;;12.35;100.00;100516.66;5239059;28;20033;-85
2022/11/09 01:09:44;;;;;;;4.72;3.38;;;;;;;12.37;100.00;100511.75;5238332;28;20029;-83
2022/11/09 01:12:15;;;;;;;5.00;2.33;;;;;;;12.49;100.00;100519.56;5237498;28;20032;-84
2022/11/09 01:14:45;;;;;;;11.80;3.55;;;;;;;12.08;100.00;100454.75;5236660;28;20036;-85
2022/11/09 01:17:16;;;;;;;5.95;3.70;;;;;;;12.44;100.00;100501.41;5236931;28;20017;-83
2022/11/09 01:19:46;;;;;;;5.65;3.33;;;;;;;12.21;100.00;100493.13;5269188;22;20043;-92
2022/11/09 01:22:20;;;;;;;6.18;3.28;;;;;;;12.63;100.00;100536.84;5247224;28;20021;-92
2022/11/09 01:24:51;;;;;;;11.65;3.20;;;;;;;12.65;100.00;100525.75;5247930;28;20084;-93
2022/11/09 01:27:21;;;;;;;4.38;2.67;;;;;;;12.67;100.00;100524.38;5247943;28;20016;-92
2022/11/09 01:29:52;;;;;;;8.40;3.35;;;;;;;12.22;100.00;100459.56;5248222;28;20032;-92
2022/11/09 01:32:23;;;;;;;5.57;3.90;;;;;;;11.01;100.00;100272.16;5266952;28;20040;-93
2022/11/09 01:34:53;;;;;;;3.83;3.53;;;;;;;12.08;100.00;100464.75;5246935;28;20032;-92
2022/11/09 01:37:26;;;;;;;5.25;4.18;;;;;;;12.25;100.00;100526.69;5265438;28;20054;-92
2022/11/09 01:39:57;;;;;;;3.80;3.60;;;;;;;10.21;100.00;100196.34;5266710;28;20043;-92
2022/11/09 01:42:28;;;;;;;2.83;2.65;;;;;;;10.92;100.00;100344.06;5248341;28;20052;-92
2022/11/09 01:45:17;;;;;;;2.90;2.70;;;;;;;11.79;100.00;100461.84;5265785;28;20035;-92
2022/11/09 01:47:53;;;;;;;6.47;3.58;;;;;;;11.74;100.00;100465.34;5264706;28;20134;-91
2022/11/09 01:50:54;;;;;;;5.63;4.45;;;;;;;12.15;100.00;100541.03;5246701;28;20043;-91
2022/11/09 01:53:36;;;;;;;6.43;2.92;;;;;;;11.36;100.00;100412.66;5246547;28;20020;-92
2022/11/09 01:56:12;;;;;;;3.85;2.83;;;;;;;11.45;100.00;100419.13;5246487;28;20035;-92
2022/11/09 01:58:48;;;;;;;3.95;3.58;;;;;;;12.12;100.00;100542.44;5246799;28;20039;-94
2022/11/09 02:01:19;;;;;;;2.92;2.65;;;;;;;11.50;100.00;100438.06;5245939;28;20039;-92
2022/11/09 02:04:00;;;;;;;6.65;3.70;;;;;;;10.53;100.00;100281.66;5263709;28;20031;-92
2022/11/09 02:06:31;;;;;;;11.00;3.47;;;;;;;11.00;100.00;100362.41;5246343;28;20032;-92
2022/11/09 02:09:26;;;;;;;3.08;2.60;;;;;;;10.90;100.00;100371.34;5246114;28;20024;-93
2022/11/09 02:11:57;;;;;;;4.47;3.53;;;;;;;11.35;100.00;100424.53;5246871;28;20020;-93
2022/11/09 02:14:29;;;;;;;11.57;4.43;;;;;;;11.48;100.00;100434.00;5248590;28;20101;-93
2022/11/09 02:16:59;;;;;;;6.50;3.33;;;;;;;12.30;100.00;100575.41;5254589;28;20058;-92
2022/11/09 02:19:30;;;;;;;8.18;4.13;;;;;;;11.50;100.00;100423.72;5256138;28;20020;-92
2022/11/09 02:22:01;;;;;;;3.45;2.92;;;;;;;12.28;100.00;100589.22;5274306;28;20044;-92
2022/11/09 02:24:35;;;;;;;2.55;2.35;;;;;;;12.27;100.00;100555.09;5256320;28;20083;-91
2022/11/09 02:27:06;;;;;;;8.45;3.67;;;;;;;12.06;100.00;100531.88;5256285;28;20104;-91
2022/11/09 02:29:43;;;;;;;7.13;4.10;;;;;;;12.25;100.00;100518.56;5273609;28;20080;-91
2022/11/09 02:32:21;;;;;;;6.57;3.75;;;;;;;10.45;100.00;100226.31;5251148;28;20027;-91
2022/11/09 02:34:57;;;;;;;6.78;4.10;;;;;;;12.24;100.00;100530.47;5249884;28;20048;-92
2022/11/09 02:37:44;;;;;;;4.93;4.03;;;;;;;11.07;100.00;100357.53;5249728;28;20020;-93
2022/11/09 02:40:35;;;;;;;13.40;4.95;;;;;;;12.11;100.00;100508.31;5251819;28;20036;-92
2022/11/09 02:43:17;;;;;;;6.13;4.20;;;;;;;10.14;100.00;100250.53;5254431;28;20043;-92
2022/11/09 02:46:31;;;;;;;4.22;3.92;;;;;;;10.20;100.00;100282.97;5255601;28;20051;-93
2022/11/09 02:49:05;;;;;;;9.10;4.00;;;;;;;11.89;100.00;100553.81;5253184;28;20045;-93
2022/11/09 02:51:42;;;;;;;4.50;3.25;;;;;;;11.82;100.00;100531.66;5249668;28;20035;-95
2022/11/09 02:54:23;;;;;;;3.45;2.97;;;;;;;10.64;100.00;100359.72;5252528;28;20088;-93
2022/11/09 02:56:57;;;;;;;15.25;5.05;;;;;;;11.83;100.00;100539.50;5255275;28;20080;-93
2022/11/09 02:59:35;;;;;;;3.63;3.33;;;;;;;11.84;100.00;100543.78;5252790;28;20080;-93
2022/11/09 03:02:22;;;;;;;5.25;3.95;;;;;;;10.34;100.00;100321.88;5253072;28;20095;-94
2022/11/09 03:04:56;;;;;;;4.50;4.05;;;;;;;10.76;100.00;100371.03;5251631;28;20024;-94
2022/11/09 03:07:29;;;;;;;8.32;4.18;;;;;;;10.64;100.00;100358.91;5266066;28;20120;-93
2022/11/09 03:10:04;;;;;;;12.40;3.47;;;;;;;10.54;100.00;100348.06;5247513;28;20021;-93
2022/11/09 03:12:41;;;;;;;7.47;4.35;;;;;;;11.84;100.00;100581.66;5247794;28;20027;-94
2022/11/09 03:15:23;;;;;;;6.78;3.47;;;;;;;11.34;100.00;100531.06;5248265;28;20056;-92
2022/11/09 03:18:14;;;;;;;4.30;3.92;;;;;;;11.84;100.00;100567.34;5245852;28;20020;-93
2022/11/09 03:20:45;;;;;;;4.90;4.13;;;;;;;10.98;100.00;100462.63;5264331;28;20402;-92
2022/11/09 03:23:16;;;;;;;9.50;3.90;;;;;;;10.66;100.00;100368.34;5246763;28;20028;-92
2022/11/09 03:25:50;;;;;;;6.03;3.00;;;;;;;11.09;100.00;100452.66;5246398;28;20087;-92
2022/11/09 03:28:25;;;;;;;4.10;2.90;;;;;;;11.42;100.00;100562.97;5251877;28;20021;-93
2022/11/09 03:30:58;;;;;;;3.63;2.78;;;;;;;10.75;100.00;100438.81;5255154;28;20035;-92
2022/11/09 03:33:29;;;;;;;4.35;3.45;;;;;;;9.60;100.00;100305.94;5254039;28;20004;-92
2022/11/09 03:36:03;;;;;;;10.82;4.30;;;;;;;11.53;100.00;100598.97;5253639;28;20043;-92
2022/11/09 03:38:34;;;;;;;7.35;3.40;;;;;;;10.74;100.00;100483.94;5264530;28;20016;-91
2022/11/09 03:41:10;;;;;;;6.82;3.88;;;;;;;11.10;100.00;100555.06;5250006;28;20035;-92
2022/11/09 03:43:43;;;;;;;6.28;4.05;;;;;;;11.37;100.00;100587.28;5246037;28;20078;-91
2022/11/09 03:46:17;;;;;;;6.15;4.03;;;;;;;9.76;100.00;100364.28;5242984;28;20534;-92
2022/11/09 03:48:50;;;;;;;8.50;5.60;;;;;;;11.29;100.00;100589.69;5243192;28;20085;-91
2022/11/09 03:51:24;;;;;;;4.47;4.07;;;;;;;11.19;100.00;100622.13;5243121;28;20050;-92
2022/11/09 03:53:55;;;;;;;5.55;4.20;;;;;;;11.10;100.00;100600.22;5244809;28;20035;-92
2022/11/09 03:56:28;;;;;;;8.50;4.13;;;;;;;10.35;100.00;100480.84;5243284;28;20029;-92
2022/11/09 03:58:58;;;;;;;10.00;5.18;;;;;;;10.31;100.00;100485.16;5261180;28;20024;-91
2022/11/09 04:01:29;;;;;;;4.43;4.05;;;;;;;9.60;100.00;100413.78;5243652;28;20059;-91
2022/11/09 04:04:00;;;;;;;3.70;3.50;;;;;;;10.11;100.00;100472.31;5260586;28;20111;-91
2022/11/09 04:06:30;;;;;;;3.58;3.30;;;;;;;9.96;100.00;100469.56;5243125;28;20020;-92
2022/11/09 04:09:03;;;;;;;7.47;2.97;;;;;;;10.86;100.00;100634.16;5243332;28;20474;-92
2022/11/09 04:11:34;;;;;;;6.18;5.63;;;;;;;9.83;100.00;100475.38;5243107;28;20032;-92
2022/11/09 04:14:05;;;;;;;14.73;4.28;;;;;;;10.80;100.00;100650.34;5244425;28;20024;-92
2022/11/09 04:16:35;;;;;;;8.15;6.00;;;;;;;10.75;100.00;100626.00;5243123;28;20051;-92
2022/11/09 04:19:06;;;;;;;4.80;3.40;;;;;;;9.24;100.00;100377.72;5243362;28;20036;-92
2022/11/09 04:21:37;;;;;;;6.30;4.70;;;;;;;10.35;100.00;100553.72;5243409;28;20016;-91
2022/11/09 04:24:07;;;;;;;4.38;3.17;;;;;;;9.74;100.00;100458.09;5260322;28;20127;-91
2022/11/09 04:26:38;;;;;;;4.53;3.30;;;;;;;10.12;100.00;100536.00;5242602;28;20078;-91
2022/11/09 04:29:12;;;;;;;11.55;4.15;;;;;;;9.91;100.00;100518.06;5242409;28;20029;-91
2022/11/09 04:31:47;;;;;;;15.32;4.30;;;;;;;9.80;100.00;100490.22;5241981;28;20050;-91
2022/11/09 04:34:18;;;;;;;4.43;3.17;;;;;;;10.65;100.00;100652.97;5241318;28;20051;-92
2022/11/09 04:36:49;;;;;;;6.97;4.75;;;;;;;10.30;100.00;100591.47;5242558;28;20024;-92
2022/11/09 04:39:19;;;;;;;8.20;3.58;;;;;;;10.06;100.00;100531.66;5242029;28;20024;-92
2022/11/09 04:41:53;;;;;;;4.00;3.80;;;;;;;8.60;100.00;100300.47;5260446;28;20028;-92
2022/11/09 04:44:23;;;;;;;6.15;3.40;;;;;;;9.50;100.00;100441.50;5261279;28;20025;-92
2022/11/09 04:46:54;;;;;;;5.68;3.92;;;;;;;10.67;100.00;100642.72;5243726;28;20024;-92
2022/11/09 04:49:25;;;;;;;4.35;3.90;;;;;;;10.11;100.00;100564.03;5242581;28;20028;-93
2022/11/09 04:51:55;;;;;;;3.90;3.20;;;;;;;10.54;100.00;100666.66;5243537;28;20028;-93
2022/11/09 04:54:29;;;;;;;7.57;4.43;;;;;;;10.05;100.00;100584.00;5261058;28;20112;-93
2022/11/09 04:56:59;;;;;;;8.82;4.72;;;;;;;8.82;100.00;100408.06;5245823;28;20402;-93
2022/11/09 04:59:30;;;;;;;5.20;4.20;;;;;;;9.53;100.00;100510.25;5264247;28;20024;-93
2022/11/09 05:02:01;;;;;;;7.72;3.95;;;;;;;10.38;100.00;100677.38;5250193;28;20052;-93
2022/11/09 05:04:31;;;;;;;5.07;3.50;;;;;;;8.11;100.00;100305.88;5248994;28;20021;-93
2022/11/09 05:07:08;;;;;;;3.95;3.63;;;;;;;10.25;100.00;100680.50;5248051;28;20032;-93
2022/11/09 05:09:38;;;;;;;15.48;5.72;;;;;;;10.16;100.00;100658.53;5248256;28;20107;-92
2022/11/09 05:12:10;;;;;;;10.15;3.22;;;;;;;9.99;100.00;100665.13;5249613;28;20044;-93
2022/11/09 05:15:04;;;;;;;6.45;4.15;;;;;;;10.11;100.00;100680.06;5249496;28;20122;-92
2022/11/09 05:17:37;;;;;;;6.38;3.33;;;;;;;10.09;100.00;100666.06;5252288;28;20037;-92
2022/11/09 05:20:12;;;;;;;5.20;4.03;;;;;;;10.07;100.00;100661.97;5253879;28;20096;-93
2022/11/09 05:25:38;;;;;;;6.40;4.07;;;;;;;10.13;100.00;100661.75;5249650;28;20411;-95
2022/11/09 05:28:09;;;;;;;7.32;4.35;;;;;;;8.97;100.00;100501.63;5231681;28;20020;-95
2022/11/09 05:30:40;;;;;;;14.98;4.63;;;;;;;9.80;100.00;100624.25;5229931;28;20021;-91
2022/11/09 05:33:11;;;;;;;7.53;3.60;;;;;;;8.82;100.00;100467.31;5243803;28;20050;-92
2022/11/09 05:35:44;;;;;;;6.18;4.15;;;;;;;9.12;100.00;100542.22;5226714;28;20032;-94
2022/11/09 05:38:24;;;;;;;10.35;4.63;;;;;;;9.36;100.00;100548.91;5243553;28;20092;-91
2022/11/09 05:40:55;;;;;;;;;;;;;;;10.20;100.00;100656.16;5245116;28;20029;-91
2022/11/09 05:43:25;;;;;;;9.30;5.43;;;;;;;10.27;100.00;100666.75;5225887;28;19959;-91
2022/11/09 05:45:58;;;;;;;10.75;4.25;;;;;;;8.53;100.00;100386.00;5224525;28;20115;-91
2022/11/09 05:48:28;;;;;;;6.38;3.42;;;;;;;9.90;100.00;100591.97;5244111;28;20119;-91
2022/11/09 05:51:01;;;;;;;14.98;4.25;;;;;;;10.41;100.00;100681.41;5243908;28;20418;-91
2022/11/09 05:53:32;;;;;;;4.80;4.47;;;;;;;9.87;100.00;100565.50;5243017;28;20048;-89
2022/11/09 05:56:14;;;;;;;4.80;3.20;;;;;;;10.18;100.00;100608.88;5243821;28;20486;-92
2022/11/09 05:58:45;;;;;;;3.42;3.22;;;;;;;9.94;100.00;100579.59;5225894;28;20055;-91
2022/11/09 06:01:20;;;;;;;7.28;6.05;;;;;;;10.42;100.00;100642.53;5224706;28;20021;-92
2022/11/09 06:03:53;;;;;;;4.50;4.10;;;;;;;9.93;100.00;100575.25;5245025;28;20156;-90
2022/11/09 06:06:28;;;;;;;4.55;4.15;;;;;;;9.21;100.00;100486.81;5226662;28;20084;-91
2022/11/09 06:08:59;;;;;;;11.55;5.43;;;;;;;8.26;100.00;100352.84;5232863;28;20035;-92
2022/11/09 06:11:29;;;;;;;8.02;4.50;;;;;;;10.21;100.00;100662.38;5233138;28;20024;-91
2022/11/09 06:14:00;;;;;;;13.73;4.85;;;;;;;9.41;100.00;100557.03;5233115;28;20043;-91
2022/11/09 06:16:30;;;;;;;10.13;5.00;;;;;;;8.80;100.00;100486.41;5233106;28;20034;-91
2022/11/09 06:19:07;;;;;;;10.40;4.40;;;;;;;8.76;100.00;100536.44;5233567;28;20029;-93
2022/11/09 06:21:38;;;;;;;4.72;3.45;;;;;;;9.90;100.00;100683.66;5233956;28;20080;-92
2022/11/09 06:24:17;;;;;;;3.20;3.00;;;;;;;9.73;100.00;100666.78;5232217;28;20083;-91
2022/11/09 06:29:41;;;;;;;3.03;2.83;;;;;;;9.71;100.00;100677.84;5249973;28;20067;-92
2022/11/09 06:32:41;;;;;;;8.68;4.32;;;;;;;8.92;100.00;100558.97;5232041;28;20128;-91
2022/11/09 06:37:59;;;;;;;8.15;4.18;;;;;;;9.82;100.00;100692.22;5231093;28;20061;-65
2022/11/09 06:40:30;;;;;;;4.57;4.18;;;;;;;9.77;100.00;100684.91;5199789;28;20428;-66
2022/11/09 06:43:00;;;;;;;3.55;2.97;;;;;;;9.70;100.00;100695.06;5189816;28;20030;-68
2022/11/09 06:45:31;;;;;;;7.18;3.40;;;;;;;9.60;100.00;100696.84;5188692;28;20025;-67
2022/11/09 06:48:02;;;;;;;12.82;8.70;;;;;;;9.53;100.00;100693.56;5189631;28;20097;-69
2022/11/09 06:50:33;;;;;;;6.25;4.13;;;;;;;9.46;100.00;100693.75;5189671;28;20037;-68
2022/11/09 06:53:09;;;;;;;5.47;3.85;;;;;;;9.47;100.00;100698.06;5188130;28;20049;-66
2022/11/09 06:55:40;;;;;;;16.60;4.40;;;;;;;9.42;100.00;100698.81;5189147;28;20032;-67
2022/11/09 06:58:14;;;;;;;15.70;5.60;;;;;;;9.38;100.00;100700.38;5189223;28;20143;-68
2022/11/09 07:00:45;;;;;;;3.47;3.13;;;;;;;9.41;100.00;100701.75;5189599;28;20029;-68
2022/11/09 07:03:18;;;;;;;8.48;4.53;;;;;;;9.34;100.00;100691.16;5189522;28;20057;-67
2022/11/09 07:05:50;;;;;;;5.10;4.30;;;;;;;9.40;100.00;100700.13;5189286;28;20033;-67
2022/11/09 07:08:20;;;;;;;8.60;4.00;;;;;;;9.38;100.00;100696.88;5188884;28;20408;-69
2022/11/09 07:10:51;;;;;;;7.13;3.38;;;;;;;9.49;100.00;100709.41;5188469;28;20080;-68
2022/11/09 07:13:21;;;;;;;7.70;4.78;;;;;;;9.28;100.00;100661.72;5188373;28;20489;-73
2022/11/09 07:15:53;;;;;;;8.85;4.38;;;;;;;9.70;100.00;100723.91;5188980;28;20040;-68
2022/11/09 07:21:11;;;;;;;8.13;4.47;;;;;;;10.04;100.00;100722.66;5214567;28;20057;-69
2022/11/09 07:23:42;;;;;;;4.95;3.85;;;;;;;10.19;100.00;100721.16;5188811;28;20055;-67
2022/11/09 07:26:13;;;;;;;4.80;3.92;;;;;;;10.28;100.00;100725.03;5189494;28;20465;-67
2022/11/09 07:28:43;;;;;;;8.35;3.47;;;;;;;10.33;100.00;100720.50;5189422;28;20473;-68
2022/11/09 07:31:14;;;;;;;8.95;4.20;;;;;;;10.34;100.00;100722.13;5189335;28;20469;-67
2022/11/09 07:33:44;;;;;;;15.63;4.55;;;;;;;10.36;100.00;100719.19;5188996;28;20068;-68
2022/11/09 07:36:15;;;;;;;10.27;3.67;;;;;;;10.34;100.00;100718.63;5207314;28;20032;-69
2022/11/09 07:38:45;;;;;;;3.75;3.42;;;;;;;10.20;100.00;100709.31;5189300;28;20013;-68
2022/11/09 07:41:16;;;;;;;4.60;4.20;;;;;;;10.07;100.00;100703.25;5189069;28;20041;-68
2022/11/09 07:43:46;;;;;;;3.53;3.30;;;;;;;10.13;100.00;100714.88;5188601;28;20036;-67
2022/11/09 07:46:17;;;;;;;7.32;3.80;;;;;;;10.05;100.00;100718.88;5188786;28;20032;-68
2022/11/09 07:48:47;;;;;;;5.55;4.00;;;;;;;10.05;100.00;100726.97;5189065;28;20072;-68
2022/11/09 07:51:18;;;;;;;8.00;3.45;;;;;;;10.06;100.00;100720.53;5189025;28;20044;-68
2022/11/09 07:53:48;;;;;;;5.60;3.38;;;;;;;10.11;100.00;100730.53;5188934;28;20026;-68
2022/11/09 07:56:18;;;;;;;9.10;4.95;;;;;;;10.14;100.00;100730.81;5188673;28;20084;-68
2022/11/09 07:58:49;;;;;;;6.20;3.97;;;;;;;10.18;100.00;100733.00;5188778;28;20508;-68
2022/11/09 08:01:20;;;;;;;11.05;5.03;;;;;;;10.18;100.00;100739.22;5206464;28;20465;-68
2022/11/09 08:03:52;;;;;;;10.40;4.00;;;;;;;10.24;100.00;100738.25;5188656;28;20403;-68
2022/11/09 08:06:26;;;;;;;8.55;3.53;;;;;;;10.14;100.00;100730.00;5172907;28;20164;-69
2022/11/09 08:08:57;;;;;;;4.47;3.67;;;;;;;10.25;100.00;100744.44;5188862;28;20461;-68
2022/11/09 08:11:28;;;;;;;13.18;4.43;;;;;;;10.31;100.00;100741.53;5189025;28;20064;-67
2022/11/09 08:13:58;;;;;;;14.88;4.47;;;;;;;10.36;100.00;100746.19;5188683;28;20032;-68
2022/11/09 08:16:28;;;;;;;11.60;4.32;;;;;;;10.39;100.00;100751.06;5188708;28;20091;-68
2022/11/09 08:18:59;;;;;;;5.35;4.10;;;;;;;10.45;100.00;100755.41;5188551;28;20053;-68
2022/11/09 08:21:29;;;;;;;4.63;3.70;;;;;;;10.49;100.00;100759.22;5206169;28;20025;-68
2022/11/09 08:24:00;;;;;;;6.88;4.47;;;;;;;10.48;100.00;100761.13;5188455;28;20040;-68
2022/11/09 08:26:31;;;;;;;4.47;4.07;;;;;;;10.56;100.00;100765.22;5188638;28;20033;-68
2022/11/09 08:29:02;;;;;;;3.40;3.13;;;;;;;10.61;100.00;100773.38;5188330;28;20033;-68
2022/11/09 08:31:32;;;;;;;8.57;5.07;;;;;;;10.62;100.00;100763.38;5206385;28;20076;-68
2022/11/09 08:34:03;;;;;;;4.68;3.80;;;;;;;10.64;100.00;100769.34;5205727;28;20036;-68
2022/11/09 08:36:35;;;;;;;3.88;3.58;;;;;;;10.66;100.00;100768.03;5188841;28;20088;-68
2022/11/09 08:39:05;;;;;;;5.10;4.63;;;;;;;10.74;100.00;100775.63;5188521;28;20021;-69
2022/11/09 08:41:36;;;;;;;6.00;4.13;;;;;;;10.46;100.00;100730.03;5188735;28;20029;-68
2022/11/09 08:44:06;;;;;;;2.70;2.60;;;;;;;10.84;100.00;100772.19;5187690;28;20025;-69
2022/11/09 08:46:37;;;;;;;9.20;3.83;;;;;;;10.93;100.00;100769.81;5206310;28;20029;-69
2022/11/09 08:49:07;;;;;;;9.73;4.35;;;;;;;10.92;100.00;100777.13;5188568;28;20397;-69
2022/11/09 08:51:38;;;;;;;11.93;5.18;;;;;;;10.97;100.00;100766.31;5188155;28;20037;-69
2022/11/09 08:54:10;;;;;;;12.00;3.67;;;;;;;11.00;100.00;100776.59;5187960;28;20021;-69
2022/11/09 08:56:40;;;;;;;6.15;4.20;;;;;;;10.97;100.00;100768.22;5188147;28;20032;-69
2022/11/09 08:59:11;;;;;;;14.77;3.90;;;;;;;11.04;100.00;100775.00;5188061;28;20029;-69
2022/11/09 09:01:41;;;;;;;4.32;2.78;;;;;;;11.00;100.00;100755.00;5187728;28;20448;-69
2022/11/09 09:04:12;;;;;;;3.40;3.10;;;;;;;11.09;100.00;100758.84;5205478;28;20550;-69
2022/11/09 09:06:42;;;;;;;3.97;3.65;;;;;;;11.02;100.00;100741.22;5188142;28;20017;-69
2022/11/09 09:09:13;;;;;;;4.35;3.60;;;;;;;11.11;100.00;100748.56;5188047;28;20413;-69
2022/11/09 09:11:43;;;;;;;8.40;3.75;;;;;;;11.27;100.00;100773.78;5188163;28;20173;-69
2022/11/09 09:14:14;;;;;;;13.85;4.28;;;;;;;11.32;100.00;100783.81;5187604;28;20030;-69
2022/11/09 09:16:44;;;;;;;8.43;2.53;;;;;;;11.26;100.00;100766.75;5187949;28;20025;-69
2022/11/09 09:19:16;;;;;;;9.02;5.13;;;;;;;11.36;100.00;100772.22;5188137;28;20045;-70
2022/11/09 09:21:46;;;;;;;4.03;3.33;;;;;;;11.39;100.00;100777.09;5187901;28;20045;-69
2022/11/09 09:24:17;;;;;;;12.38;3.53;;;;;;;11.52;100.00;100788.53;5187347;28;20026;-69
2022/11/09 09:26:47;;;;;;;7.38;3.50;;;;;;;11.58;100.00;100796.38;5187859;28;20025;-69
2022/11/09 09:29:18;;;;;;;8.70;4.22;;;;;;;11.67;100.00;100783.97;5187516;28;20588;-70
2022/11/09 09:31:48;;;;;;;10.68;4.55;;;;;;;11.77;100.00;100802.19;5205189;28;20144;-69
2022/11/09 09:34:19;;;;;;;3.45;3.25;;;;;;;11.90;100.00;100795.44;5187256;28;20113;-70
2022/11/09 09:36:52;;;;;;;4.18;3.25;;;;;;;12.01;100.00;100797.91;5205476;28;20026;-69
2022/11/09 09:39:22;;;;;;;13.75;3.50;;;;;;;12.10;100.00;100799.03;5187937;28;20029;-69
2022/11/09 09:41:55;;;;;;;3.25;2.95;;;;;;;12.33;100.00;100802.31;5191102;28;20063;-72
2022/11/09 09:44:59;;;;;;;4.20;3.25;;;;;;;12.46;100.00;100807.19;5190380;28;20026;-72
2022/11/09 09:47:57;;;;;;;8.50;4.07;;;;;;;12.57;100.00;100818.84;5191358;28;20021;-71
2022/11/09 09:50:39;;;;;;;5.20;3.15;;;;;;;12.66;100.00;100818.06;5182724;28;20041;-71
2022/11/09 09:53:18;;;;;;;3.60;2.72;;;;;;;12.83;100.00;100824.00;5190529;28;20049;-71
2022/11/09 09:55:56;;;;;;;3.47;3.20;;;;;;;12.93;100.00;100812.34;5191525;28;20543;-70
2022/11/09 09:58:29;;;;;;;13.52;3.80;;;;;;;13.03;100.00;100819.63;5191952;28;20033;-70
2022/11/09 10:01:10;;;;;;;11.90;3.33;;;;;;;13.03;100.00;100797.94;5190852;28;20120;-70
2022/11/09 10:03:41;;;;;;;3.47;2.53;;;;;;;13.18;100.00;100822.38;5190532;28;20033;-70
2022/11/09 10:06:21;;;;;;;3.40;3.10;;;;;;;13.21;100.00;100816.41;5190924;28;20400;-70
2022/11/09 10:09:07;;;;;;;7.38;3.03;;;;;;;13.22;100.00;100820.75;5190761;28;20126;-70
2022/11/09 10:11:50;;;;;;;5.75;2.33;;;;;;;13.25;100.00;100825.63;5190762;28;20032;-70
2022/11/09 10:14:42;;;;;;;5.78;3.30;;;;;;;13.32;100.00;100831.56;5190437;28;20044;-70
2022/11/09 10:17:43;;;;;;;6.40;3.85;;;;;;;13.37;100.00;100845.09;5190903;28;20029;-70
2022/11/09 10:20:44;;;;;;;3.08;2.83;;;;;;;13.49;100.00;100853.78;5209556;28;20083;-70
2022/11/09 10:23:24;;;;;;;8.15;4.13;;;;;;;13.53;100.00;100859.47;5191166;28;20048;-70
2022/11/09 10:26:03;;;;;;;4.18;3.97;;;;;;;13.55;100.00;100864.63;5191416;28;20079;-71
2022/11/09 10:28:38;;;;;;;6.18;3.28;;;;;;;13.63;100.00;100864.03;5190889;28;20061;-70
2022/11/09 10:31:19;;;;;;;3.50;3.20;;;;;;;13.71;100.00;100867.00;5191230;28;20032;-71
2022/11/09 10:33:59;;;;;;;8.65;3.85;;;;;;;13.88;100.00;100876.69;5190806;28;20022;-70
2022/11/09 10:36:38;;;;;;;;;;;;;;;13.90;100.00;100879.94;5191181;28;20393;-70
2022/11/09 10:39:13;;;;;;;7.90;3.22;;;;;;;13.86;100.00;100887.81;5208480;28;20288;-70
2022/11/09 10:41:47;;;;;;;7.07;3.17;;;;;;;13.70;100.00;100872.69;5189927;28;20447;-70
2022/11/09 10:44:18;;;;;;;4.72;2.97;;;;;;;13.68;100.00;100883.81;5188861;28;20033;-70
2022/11/09 10:47:08;;;;;;;7.90;4.20;;;;;;;13.71;100.00;100887.88;5189754;28;20037;-70
2022/11/09 10:49:39;;;;;;;8.00;2.30;;;;;;;13.81;100.00;100893.28;5189548;28;20111;-71
2022/11/09 10:52:28;;;;;;;2.20;2.10;;;;;;;13.83;100.00;100897.38;5188377;28;20017;-70
2022/11/09 10:55:22;;;;;;;11.70;2.83;;;;;;;13.81;100.00;100910.41;5189527;28;20041;-72
2022/11/09 10:58:20;;;;;;;6.45;4.22;;;;;;;13.74;100.00;100895.47;5189216;28;20029;-70
2022/11/09 11:01:10;;;;;;;9.10;2.85;;;;;;;13.66;100.00;100891.44;5189350;28;20025;-71
2022/11/09 11:03:43;;;;;;;5.82;3.13;;;;;;;13.61;100.00;100893.34;5189118;28;20040;-71
2022/11/09 11:06:13;;;;;;;10.05;4.70;;;;;;;13.64;100.00;100892.78;5188984;28;20087;-70
2022/11/09 11:08:57;;;;;;;11.38;3.00;;;;;;;13.73;100.00;100886.53;5189481;28;20033;-70
2022/11/09 11:11:29;;;;;;;5.90;3.42;;;;;;;13.70;100.00;100895.22;5207104;28;20029;-71
2022/11/09 11:14:28;;;;;;;6.22;4.05;;;;;;;13.67;100.00;100903.91;5188878;28;20018;-70
2022/11/09 11:16:59;;;;;;;4.15;3.67;;;;;;;13.62;100.00;100873.25;5207109;28;20053;-70
2022/11/09 11:19:34;;;;;;;7.90;3.55;;;;;;;13.65;100.00;100888.97;5188752;28;20503;-70
2022/11/09 11:22:21;;;;;;;3.90;3.03;;;;;;;13.81;100.00;100888.69;5188870;28;20029;-70
2022/11/09 11:25:00;;;;;;;2.75;2.63;;;;;;;13.99;100.00;100900.00;5188567;28;20037;-70
2022/11/09 11:27:36;;;;;;;6.60;2.97;;;;;;;14.03;100.00;100891.03;5189004;28;20037;-72
2022/11/09 11:30:21;;;;;;;2.97;2.58;;;;;;;13.83;100.00;100875.66;5188870;28;20392;-71
2022/11/09 11:32:52;;;;;;;7.80;3.53;;;;;;;13.90;100.00;100902.47;5188968;28;20516;-71
2022/11/09 11:35:35;;;;;;;3.35;2.53;;;;;;;13.85;100.00;100897.09;5188241;28;20500;-72
2022/11/09 11:38:33;;;;;;;2.65;2.45;;;;;;;13.78;100.00;100899.28;5206577;28;20061;-71
2022/11/09 11:41:22;;;;;;;5.60;4.38;;;;;;;13.74;100.00;100890.06;5188558;28;20040;-68
2022/11/09 11:44:14;;;;;;;4.70;2.83;;;;;;;13.80;100.00;100897.09;5206160;28;20397;-71
2022/11/09 11:47:23;;;;;;;2.17;2.08;;;;;;;13.88;100.00;100896.50;5188679;28;20461;-71
2022/11/09 11:50:09;;;;;;;6.10;3.38;;;;;;;13.91;100.00;100897.84;5187137;28;20041;-72
2022/11/09 11:52:58;;;;;;;6.28;3.95;;;;;;;13.89;100.00;100891.88;5188667;28;20478;-72
2022/11/09 11:55:41;;;;;;;5.55;2.28;;;;;;;13.88;100.00;100888.38;5188371;28;20033;-71
2022/11/09 11:58:36;;;;;;;5.10;2.47;;;;;;;13.73;100.00;100885.72;5206490;28;20084;-73
2022/11/09 12:01:34;;;;;;;3.70;3.40;;;;;;;13.62;100.00;100894.97;5205631;28;20071;-73
2022/11/09 12:04:20;;;;;;;6.03;3.85;;;;;;;13.52;100.00;100880.34;5202847;28;20068;-72